createdAt,value
2023-01-18T00:00:28.518Z,3.62
2023-01-18T00:02:33.067Z,3.60
2023-01-18T00:04:39.554Z,3.58
2023-01-18T00:06:44.488Z,3.59
2023-01-18T00:08:51.966Z,3.55
2023-01-18T00:10:56.817Z,3.51
2023-01-18T00:13:01.862Z,3.42
2023-01-18T00:15:07.084Z,3.33
2023-01-18T00:17:11.623Z,3.22
2023-01-18T00:19:19.387Z,3.19
2023-01-18T00:21:24.828Z,3.22
2023-01-18T00:23:29.621Z,3.14
2023-01-18T00:25:37.085Z,3.09
2023-01-18T00:27:42.195Z,2.93
2023-01-18T00:29:50.249Z,3.00
2023-01-18T00:31:55.488Z,3.02
2023-01-18T00:34:00.376Z,3.07
2023-01-18T00:36:07.173Z,3.10
2023-01-18T00:38:13.517Z,3.12
2023-01-18T00:40:18.564Z,3.18
2023-01-18T00:42:38.323Z,3.18
2023-01-18T00:44:43.185Z,3.03
2023-01-18T00:46:50.070Z,2.99
2023-01-18T00:48:55.661Z,3.06
2023-01-18T00:51:00.506Z,3.16
2023-01-18T00:53:05.295Z,3.20
2023-01-18T00:55:12.585Z,3.27
2023-01-18T00:57:17.410Z,3.15
2023-01-18T00:59:24.787Z,3.22
2023-01-18T01:01:29.791Z,3.20
2023-01-18T01:03:55.122Z,3.11
2023-01-18T01:06:12.421Z,3.01
2023-01-18T01:08:17.377Z,2.99
2023-01-18T01:10:22.611Z,2.95
2023-01-18T01:12:39.596Z,2.91
2023-01-18T01:15:01.527Z,2.87
2023-01-18T01:17:18.814Z,2.84
2023-01-18T01:19:36.087Z,2.81
2023-01-18T01:21:54.033Z,2.82
2023-01-18T01:24:11.345Z,2.78
2023-01-18T01:26:16.452Z,2.80
2023-01-18T01:28:21.267Z,2.87
2023-01-18T01:30:28.739Z,2.95
2023-01-18T01:32:35.365Z,2.98
2023-01-18T01:34:40.296Z,3.08
2023-01-18T01:36:45.076Z,3.18
2023-01-18T01:38:50.288Z,3.17
2023-01-18T01:41:07.390Z,3.06
2023-01-18T01:43:15.442Z,3.07
2023-01-18T01:45:20.911Z,3.03
2023-01-18T01:47:37.384Z,3.03
2023-01-18T01:49:45.694Z,2.99
2023-01-18T01:51:54.578Z,3.05
2023-01-18T01:54:03.797Z,3.02
2023-01-18T01:56:08.971Z,2.98
2023-01-18T01:58:16.235Z,2.95
2023-01-18T02:00:24.586Z,3.05
2023-01-18T02:02:33.641Z,3.14
2023-01-18T02:04:38.902Z,3.18
2023-01-18T02:06:44.234Z,3.26
2023-01-18T02:08:52.079Z,3.33
2023-01-18T02:10:57.176Z,3.37
2023-01-18T02:13:03.083Z,3.46
2023-01-18T02:15:09.607Z,3.49
2023-01-18T02:17:33.757Z,3.52
2023-01-18T02:20:11.479Z,3.58
2023-01-18T02:22:29.503Z,3.53
2023-01-18T02:25:10.863Z,3.54
2023-01-18T02:27:24.985Z,3.55
2023-01-18T02:30:05.290Z,3.50
2023-01-18T02:32:24.885Z,3.35
2023-01-18T02:34:40.780Z,3.21
2023-01-18T02:36:52.467Z,3.17
2023-01-18T02:39:00.622Z,3.07
2023-01-18T02:41:15.590Z,3.07
2023-01-18T02:43:35.115Z,3.04
2023-01-18T02:45:58.243Z,3.01
2023-01-18T02:48:05.028Z,3.05
2023-01-18T02:50:10.885Z,3.16
2023-01-18T02:52:43.443Z,3.25
2023-01-18T02:54:50.562Z,3.29
2023-01-18T02:56:56.798Z,3.24
2023-01-18T02:59:07.471Z,3.30
2023-01-18T03:01:22.427Z,3.35
2023-01-18T03:03:28.663Z,3.35
2023-01-18T03:05:34.552Z,3.34
2023-01-18T03:07:48.756Z,3.37
2023-01-18T03:09:54.421Z,3.40
2023-01-18T03:12:04.174Z,3.46
2023-01-18T03:14:23.480Z,3.44
2023-01-18T03:16:42.593Z,3.38
2023-01-18T03:19:04.979Z,3.31
2023-01-18T03:21:08.531Z,3.24
2023-01-18T03:23:31.601Z,3.26
2023-01-18T03:25:41.363Z,3.24
2023-01-18T03:28:01.952Z,3.20
2023-01-18T03:30:20.563Z,3.18
2023-01-18T03:32:40.615Z,3.25
2023-01-18T03:34:52.242Z,3.23
2023-01-18T03:37:01.087Z,3.17
2023-01-18T03:39:09.196Z,3.29
2023-01-18T03:41:16.509Z,3.30
2023-01-18T03:43:25.428Z,3.35
2023-01-18T03:45:33.610Z,3.40
2023-01-18T03:47:41.316Z,3.48
2023-01-18T03:49:46.292Z,3.51
2023-01-18T03:52:02.735Z,3.40
2023-01-18T03:54:16.761Z,3.29
2023-01-18T03:56:26.256Z,3.23
2023-01-18T03:58:36.065Z,3.10
2023-01-18T04:00:42.298Z,3.08
2023-01-18T04:02:51.781Z,3.08
2023-01-18T04:04:57.645Z,3.05
2023-01-18T04:07:02.699Z,3.12
2023-01-18T04:09:11.985Z,3.22
2023-01-18T04:11:16.872Z,3.32
2023-01-18T04:13:21.680Z,3.36
2023-01-18T04:15:26.681Z,3.28
2023-01-18T04:17:31.469Z,3.21
2023-01-18T04:19:40.651Z,3.13
2023-01-18T04:21:45.465Z,3.14
2023-01-18T04:23:50.370Z,3.10
2023-01-18T04:25:55.326Z,3.20
2023-01-18T04:28:00.132Z,3.27
2023-01-18T04:30:06.382Z,3.35
2023-01-18T04:32:11.372Z,3.44
2023-01-18T04:34:16.323Z,3.50
2023-01-18T04:36:24.437Z,3.55
2023-01-18T04:38:29.546Z,3.57
2023-01-18T04:40:34.372Z,3.54
2023-01-18T04:42:39.204Z,3.40
2023-01-18T04:44:44.152Z,3.42
2023-01-18T04:46:49.215Z,3.44
2023-01-18T04:48:54.369Z,3.50
2023-01-18T04:50:59.305Z,3.38
2023-01-18T04:53:06.745Z,3.34
2023-01-18T04:55:15.953Z,3.29
2023-01-18T04:57:21.366Z,3.22
2023-01-18T04:59:26.137Z,3.21
2023-01-18T05:01:31.099Z,3.19
2023-01-18T05:03:38.474Z,3.17
2023-01-18T05:05:43.384Z,3.26
2023-01-18T05:07:48.451Z,3.38
2023-01-18T05:09:57.146Z,3.43
2023-01-18T05:12:01.923Z,3.31
2023-01-18T05:14:06.790Z,3.23
2023-01-18T05:16:16.823Z,3.26
2023-01-18T05:18:21.694Z,3.32
2023-01-18T05:20:26.498Z,3.38
2023-01-18T05:22:33.156Z,3.40
2023-01-18T05:24:37.987Z,3.39
2023-01-18T05:26:45.358Z,3.46
2023-01-18T05:28:51.322Z,3.45
2023-01-18T05:30:57.156Z,3.38
2023-01-18T05:33:03.458Z,3.40
2023-01-18T05:35:09.840Z,3.47
2023-01-18T05:37:14.759Z,3.40
2023-01-18T05:39:19.524Z,3.31
2023-01-18T05:41:24.968Z,3.29
2023-01-18T05:43:34.553Z,3.35
2023-01-18T05:45:40.483Z,3.33
2023-01-18T05:47:45.627Z,3.14
2023-01-18T05:49:50.463Z,3.20
2023-01-18T05:51:55.277Z,3.28
2023-01-18T05:54:00.257Z,3.36
2023-01-18T05:56:08.000Z,3.47
2023-01-18T05:58:12.865Z,3.56
2023-01-18T06:00:21.516Z,3.66
2023-01-18T06:02:27.476Z,3.62
2023-01-18T06:04:32.276Z,3.65
2023-01-18T06:06:37.344Z,3.70
2023-01-18T06:08:42.178Z,3.59
2023-01-18T06:10:50.373Z,3.50
2023-01-18T06:12:55.206Z,3.44
2023-01-18T06:15:00.660Z,3.44
2023-01-18T06:17:09.008Z,3.45
2023-01-18T06:19:13.995Z,3.52
2023-01-18T06:21:19.083Z,3.60
2023-01-18T06:23:24.640Z,3.54
2023-01-18T06:25:29.525Z,3.52
2023-01-18T06:27:34.352Z,3.46
2023-01-18T06:29:39.139Z,3.42
2023-01-18T06:31:44.166Z,3.37
2023-01-18T06:33:52.101Z,3.30
2023-01-18T06:35:56.947Z,3.18
2023-01-18T06:38:01.801Z,3.02
2023-01-18T06:40:07.726Z,3.00
2023-01-18T06:42:12.882Z,2.91
2023-01-18T06:44:17.505Z,2.77
2023-01-18T06:46:25.180Z,2.65
2023-01-18T06:48:30.579Z,2.50
2023-01-18T06:50:38.087Z,2.45
2023-01-18T06:52:43.632Z,2.47
2023-01-18T06:54:50.715Z,2.47
2023-01-18T06:56:55.492Z,2.49
2023-01-18T06:59:01.232Z,2.56
2023-01-18T07:01:07.099Z,2.62
2023-01-18T07:03:12.395Z,2.63
2023-01-18T07:05:17.000Z,2.54
2023-01-18T07:07:24.473Z,2.51
2023-01-18T07:09:29.475Z,2.46
2023-01-18T07:11:35.838Z,2.42
2023-01-18T07:13:43.753Z,2.42
2023-01-18T07:15:51.237Z,2.51
2023-01-18T07:17:56.075Z,2.48
2023-01-18T07:20:00.988Z,2.41
2023-01-18T07:22:05.968Z,2.26
2023-01-18T07:24:13.519Z,2.37
2023-01-18T07:26:19.927Z,2.44
2023-01-18T07:28:24.793Z,2.38
2023-01-18T07:30:29.683Z,2.31
2023-01-18T07:32:34.524Z,2.34
2023-01-18T07:34:39.323Z,2.36
2023-01-18T07:36:44.442Z,2.31
2023-01-18T07:38:50.090Z,2.28
2023-01-18T07:41:02.247Z,2.22
2023-01-18T07:43:07.190Z,2.14
2023-01-18T07:45:14.059Z,2.09
2023-01-18T07:47:18.889Z,2.08
2023-01-18T07:49:23.718Z,2.06
2023-01-18T07:51:28.657Z,2.10
2023-01-18T07:53:34.843Z,2.12
2023-01-18T07:55:40.847Z,2.12
2023-01-18T07:57:48.576Z,2.19
2023-01-18T07:59:53.481Z,2.20
2023-01-18T08:01:58.453Z,2.10
2023-01-18T08:04:03.282Z,2.02
2023-01-18T08:06:10.267Z,2.06
2023-01-18T08:08:16.587Z,2.02
2023-01-18T08:10:21.492Z,1.93
2023-01-18T08:12:26.333Z,1.97
2023-01-18T08:14:33.705Z,2.03
2023-01-18T08:16:38.710Z,2.08
2023-01-18T08:18:45.619Z,2.12
2023-01-18T08:20:54.340Z,2.23
2023-01-18T08:23:01.673Z,2.27
2023-01-18T08:25:07.146Z,2.16
2023-01-18T08:27:11.935Z,2.09
2023-01-18T08:29:16.919Z,2.15
2023-01-18T08:31:24.985Z,2.03
2023-01-18T08:33:30.088Z,2.07
2023-01-18T08:35:37.614Z,2.11
2023-01-18T08:37:42.404Z,2.18
2023-01-18T08:39:47.435Z,2.22
2023-01-18T08:41:52.031Z,2.31
2023-01-18T08:43:57.784Z,2.36
2023-01-18T08:46:02.863Z,2.33
2023-01-18T08:48:12.773Z,2.42
2023-01-18T08:50:17.615Z,2.49
2023-01-18T08:52:22.360Z,2.51
2023-01-18T08:54:27.380Z,2.47
2023-01-18T08:56:32.238Z,2.48
2023-01-18T08:58:37.181Z,2.58
2023-01-18T09:00:42.389Z,2.48
2023-01-18T09:02:49.607Z,2.45
2023-01-18T09:04:57.052Z,2.39
2023-01-18T09:07:01.892Z,2.29
2023-01-18T09:09:06.757Z,2.43
2023-01-18T09:11:13.609Z,2.30
2023-01-18T09:13:18.382Z,2.25
2023-01-18T09:15:23.296Z,2.16
2023-01-18T09:17:28.555Z,2.17
2023-01-18T09:19:33.399Z,2.30
2023-01-18T09:21:40.864Z,2.27
2023-01-18T09:23:46.556Z,2.27
2023-01-18T09:25:51.949Z,2.28
2023-01-18T09:27:56.889Z,2.44
2023-01-18T09:30:01.716Z,2.53
2023-01-18T09:32:08.254Z,2.71
2023-01-18T09:34:19.683Z,2.86
2023-01-18T09:36:27.057Z,2.93
2023-01-18T09:38:36.951Z,3.04
2023-01-18T09:40:48.060Z,3.03
2023-01-18T09:42:54.741Z,2.94
2023-01-18T09:45:02.513Z,2.93
2023-01-18T09:47:14.220Z,2.87
2023-01-18T09:49:24.812Z,2.65
2023-01-18T09:51:34.306Z,2.77
2023-01-18T09:53:57.271Z,2.83
2023-01-18T09:56:08.426Z,2.86
2023-01-18T09:58:27.904Z,2.67
2023-01-18T10:00:36.653Z,2.69
2023-01-18T10:02:41.928Z,2.65
2023-01-18T10:04:47.766Z,2.56
2023-01-18T10:06:55.463Z,2.49
2023-01-18T10:09:04.680Z,2.49
2023-01-18T10:11:12.023Z,2.51
2023-01-18T10:13:40.720Z,2.39
2023-01-18T10:15:45.743Z,2.21
2023-01-18T10:17:50.837Z,2.23
2023-01-18T10:19:55.617Z,2.33
2023-01-18T10:22:05.117Z,2.32
2023-01-18T10:24:24.657Z,2.27
2023-01-18T10:26:33.287Z,2.11
2023-01-18T10:28:42.365Z,2.03
2023-01-18T10:30:51.624Z,1.92
2023-01-18T10:32:58.253Z,1.95
2023-01-18T10:35:03.458Z,2.02
2023-01-18T10:37:14.535Z,2.11
2023-01-18T10:39:28.202Z,2.09
2023-01-18T10:41:41.250Z,2.18
2023-01-18T10:43:45.793Z,2.29
2023-01-18T10:45:51.195Z,2.07
2023-01-18T10:47:56.758Z,1.99
2023-01-18T10:50:02.265Z,1.81
2023-01-18T10:52:24.638Z,1.83
2023-01-18T10:54:29.851Z,1.78
2023-01-18T10:56:37.692Z,1.88
2023-01-18T10:58:45.662Z,1.86
2023-01-18T11:00:55.764Z,1.99
2023-01-18T11:03:01.277Z,2.02
2023-01-18T11:05:10.023Z,1.85
2023-01-18T11:07:15.506Z,1.95
2023-01-18T11:09:42.095Z,1.98
2023-01-18T11:12:01.701Z,1.96
2023-01-18T11:14:24.691Z,2.00
2023-01-18T11:16:29.552Z,2.04
2023-01-18T11:18:34.197Z,2.03
2023-01-18T11:20:44.743Z,2.09
2023-01-18T11:22:56.062Z,2.14
2023-01-18T11:25:00.691Z,2.21
2023-01-18T11:27:10.257Z,2.20
2023-01-18T11:29:17.620Z,2.09
2023-01-18T11:31:23.533Z,2.06
2023-01-18T11:33:29.718Z,2.04
2023-01-18T11:35:36.454Z,1.99
2023-01-18T11:37:43.696Z,1.90
2023-01-18T11:39:49.300Z,1.96
2023-01-18T11:41:56.717Z,2.04
2023-01-18T11:44:07.742Z,2.07
2023-01-18T11:46:24.471Z,2.02
2023-01-18T11:48:32.992Z,1.96
2023-01-18T11:50:42.359Z,1.89
2023-01-18T11:52:51.844Z,2.06
2023-01-18T11:54:58.777Z,2.02
2023-01-18T11:57:04.217Z,2.10
2023-01-18T11:59:15.611Z,2.15
2023-01-18T12:01:28.676Z,1.97
2023-01-18T12:03:43.006Z,1.99
2023-01-18T12:05:53.113Z,1.99
2023-01-18T12:08:03.458Z,2.02
2023-01-18T12:10:14.068Z,2.08
2023-01-18T12:12:24.737Z,2.06
2023-01-18T12:14:49.250Z,2.04
2023-01-18T12:17:04.443Z,1.98
2023-01-18T12:19:24.052Z,2.02
2023-01-18T12:21:34.116Z,1.94
2023-01-18T12:23:56.001Z,1.98
2023-01-18T12:26:12.597Z,2.03
2023-01-18T12:28:21.737Z,1.99
2023-01-18T12:30:38.686Z,2.03
2023-01-18T12:32:55.237Z,2.02
2023-01-18T12:35:22.693Z,2.08
2023-01-18T12:37:34.241Z,2.19
2023-01-18T12:39:48.941Z,2.21
2023-01-18T12:41:59.146Z,2.24
2023-01-18T12:44:13.377Z,2.23
2023-01-18T12:46:25.357Z,2.33
2023-01-18T12:48:32.181Z,2.29
2023-01-18T12:50:38.392Z,2.24
2023-01-18T12:52:46.701Z,2.11
2023-01-18T12:54:56.107Z,2.01
2023-01-18T12:57:01.855Z,1.95
2023-01-18T12:59:09.515Z,2.00
2023-01-18T13:01:19.307Z,2.02
2023-01-18T13:03:28.700Z,1.90
2023-01-18T13:05:37.930Z,1.89
2023-01-18T13:07:44.786Z,1.96
2023-01-18T13:09:52.374Z,1.92
2023-01-18T13:11:58.560Z,1.98
2023-01-18T13:14:09.329Z,2.06
2023-01-18T13:16:19.884Z,2.14
2023-01-18T13:18:29.847Z,2.19
2023-01-18T13:20:42.254Z,2.18
2023-01-18T13:22:50.960Z,2.20
2023-01-18T13:25:08.991Z,2.07
2023-01-18T13:27:14.361Z,2.08
2023-01-18T13:29:31.233Z,2.12
2023-01-18T13:31:36.104Z,2.07
2023-01-18T13:33:45.629Z,2.00
2023-01-18T13:35:53.362Z,2.06
2023-01-18T13:37:58.795Z,2.11
2023-01-18T13:40:03.585Z,2.13
2023-01-18T13:42:23.951Z,2.19
2023-01-18T13:44:32.610Z,2.22
2023-01-18T13:46:39.670Z,2.28
2023-01-18T13:48:51.065Z,2.37
2023-01-18T13:50:57.516Z,2.30
2023-01-18T13:53:18.287Z,2.21
2023-01-18T13:55:34.303Z,2.21
2023-01-18T13:57:38.975Z,2.15
2023-01-18T13:59:47.875Z,2.12
2023-01-18T14:01:53.344Z,2.00
2023-01-18T14:04:07.310Z,1.99
2023-01-18T14:06:17.339Z,2.10
2023-01-18T14:08:22.982Z,2.01
2023-01-18T14:10:30.515Z,2.17
2023-01-18T14:12:51.449Z,2.31
2023-01-18T14:14:57.238Z,2.34
2023-01-18T14:17:03.265Z,2.36
2023-01-18T14:19:17.163Z,2.49
2023-01-18T14:21:27.757Z,2.46
2023-01-18T14:23:57.561Z,2.62
2023-01-18T14:26:04.883Z,2.71
2023-01-18T14:28:12.335Z,2.63
2023-01-18T14:30:21.434Z,2.59
2023-01-18T14:32:30.088Z,2.51
2023-01-18T14:34:41.734Z,2.42
2023-01-18T14:36:46.310Z,2.29
2023-01-18T14:39:09.871Z,2.29
2023-01-18T14:41:17.968Z,2.25
2023-01-18T14:43:26.705Z,2.29
2023-01-18T14:45:32.232Z,2.23
2023-01-18T14:47:37.747Z,2.21
2023-01-18T14:49:46.377Z,2.05
2023-01-18T14:51:54.855Z,2.01
2023-01-18T14:54:00.765Z,1.99
2023-01-18T14:56:07.574Z,2.02
2023-01-18T14:58:14.748Z,1.93
2023-01-18T15:00:20.455Z,1.94
2023-01-18T15:02:29.326Z,2.03
2023-01-18T15:04:38.914Z,2.06
2023-01-18T15:06:47.975Z,1.93
2023-01-18T15:08:52.708Z,1.93
2023-01-18T15:10:57.330Z,1.88
2023-01-18T15:13:02.238Z,1.96
2023-01-18T15:15:09.598Z,1.99
2023-01-18T15:17:21.534Z,2.03
2023-01-18T15:19:27.317Z,2.05
2023-01-18T15:21:33.951Z,2.03
2023-01-18T15:23:43.059Z,2.10
2023-01-18T15:25:47.608Z,2.11
2023-01-18T15:27:53.727Z,2.06
2023-01-18T15:29:59.724Z,2.02
2023-01-18T15:32:06.298Z,2.04
2023-01-18T15:34:15.336Z,2.08
2023-01-18T15:36:20.117Z,2.09
2023-01-18T15:38:24.821Z,2.13
2023-01-18T15:40:33.004Z,2.03
2023-01-18T15:42:40.103Z,1.99
2023-01-18T15:44:46.211Z,1.99
2023-01-18T15:46:50.822Z,2.05
2023-01-18T15:48:57.332Z,2.03
2023-01-18T15:51:07.832Z,1.97
2023-01-18T15:53:16.759Z,1.96
2023-01-18T15:55:22.848Z,1.98
2023-01-18T15:57:31.035Z,1.96
2023-01-18T15:59:35.547Z,1.89
2023-01-18T16:01:41.573Z,1.84
2023-01-18T16:03:57.632Z,1.72
2023-01-18T16:06:05.780Z,1.70
2023-01-18T16:08:21.538Z,1.69
2023-01-18T16:10:31.597Z,1.68
2023-01-18T16:12:38.722Z,1.65
2023-01-18T16:14:46.404Z,1.61
2023-01-18T16:16:51.528Z,1.66
2023-01-18T16:19:10.960Z,1.63
2023-01-18T16:21:17.375Z,1.57
2023-01-18T16:23:23.199Z,1.56
2023-01-18T16:25:27.837Z,1.59
2023-01-18T16:27:34.585Z,1.67
2023-01-18T16:29:46.629Z,1.73
2023-01-18T16:31:51.629Z,1.74
2023-01-18T16:33:56.213Z,1.76
2023-01-18T16:36:01.605Z,1.66
2023-01-18T16:38:06.450Z,1.59
2023-01-18T16:40:11.658Z,1.57
2023-01-18T16:42:18.196Z,1.58
2023-01-18T16:44:24.677Z,1.68
2023-01-18T16:46:33.187Z,1.71
2023-01-18T16:48:38.010Z,1.67
2023-01-18T16:50:42.728Z,1.66
2023-01-18T16:52:47.507Z,1.64
2023-01-18T16:54:52.129Z,1.59
2023-01-18T16:56:57.164Z,1.63
2023-01-18T16:59:02.760Z,1.62
2023-01-18T17:01:09.232Z,1.62
2023-01-18T17:03:16.477Z,1.55
2023-01-18T17:05:21.079Z,1.60
2023-01-18T17:07:25.731Z,1.55
2023-01-18T17:09:40.339Z,1.59
2023-01-18T17:11:52.051Z,1.59
2023-01-18T17:13:56.654Z,1.66
2023-01-18T17:16:01.292Z,1.59
2023-01-18T17:18:08.348Z,1.50
2023-01-18T17:20:25.541Z,1.56
2023-01-18T17:22:30.090Z,1.55
2023-01-18T17:24:34.663Z,1.51
2023-01-18T17:26:39.689Z,1.47
2023-01-18T17:28:44.287Z,1.53
2023-01-18T17:30:49.996Z,1.50
2023-01-18T17:32:54.672Z,1.58
2023-01-18T17:34:59.701Z,1.59
2023-01-18T17:37:06.894Z,1.63
2023-01-18T17:39:11.470Z,1.63
2023-01-18T17:41:26.810Z,1.60
2023-01-18T17:43:34.520Z,1.61
2023-01-18T17:45:43.891Z,1.64
2023-01-18T17:47:50.816Z,1.59
2023-01-18T17:49:55.381Z,1.58
2023-01-18T17:51:59.940Z,1.60
2023-01-18T17:54:13.204Z,1.67
2023-01-18T17:56:24.928Z,1.64
2023-01-18T17:58:29.574Z,1.71
2023-01-18T18:00:34.319Z,1.79
2023-01-18T18:02:38.983Z,1.58
2023-01-18T18:04:43.539Z,1.61
2023-01-18T18:06:54.280Z,1.62
2023-01-18T18:08:59.233Z,1.68
2023-01-18T18:11:09.298Z,1.66
2023-01-18T18:13:13.941Z,1.68
2023-01-18T18:15:22.579Z,1.61
2023-01-18T18:17:28.147Z,1.55
2023-01-18T18:19:33.151Z,1.53
2023-01-18T18:21:37.976Z,1.59
2023-01-18T18:23:42.678Z,1.64
2023-01-18T18:25:49.578Z,1.54
2023-01-18T18:27:56.707Z,1.46
2023-01-18T18:30:01.423Z,1.55
2023-01-18T18:32:07.183Z,1.62
2023-01-18T18:34:11.802Z,1.64
2023-01-18T18:36:16.333Z,1.61
2023-01-18T18:38:23.080Z,1.57
2023-01-18T18:40:27.826Z,1.54
2023-01-18T18:42:32.595Z,1.50
2023-01-18T18:44:39.770Z,1.45
2023-01-18T18:46:44.409Z,1.52
2023-01-18T18:48:49.739Z,1.40
2023-01-18T18:50:54.745Z,1.47
2023-01-18T18:53:00.143Z,1.51
2023-01-18T18:55:05.115Z,1.53
2023-01-18T18:57:09.859Z,1.57
2023-01-18T18:59:14.595Z,1.61
2023-01-18T19:01:25.273Z,1.64
2023-01-18T19:03:29.999Z,1.66
2023-01-18T19:05:35.178Z,1.56
2023-01-18T19:07:40.655Z,1.54
2023-01-18T19:09:45.171Z,1.58
2023-01-18T19:11:55.139Z,1.55
2023-01-18T19:14:00.236Z,1.66
2023-01-18T19:16:04.901Z,1.64
2023-01-18T19:18:12.221Z,1.64
2023-01-18T19:20:17.839Z,1.63
2023-01-18T19:22:22.383Z,1.59
2023-01-18T19:24:31.779Z,1.56
2023-01-18T19:26:36.346Z,1.59
2023-01-18T19:28:42.101Z,1.50
2023-01-18T19:30:49.163Z,1.53
2023-01-18T19:32:54.417Z,1.56
2023-01-18T19:35:01.577Z,1.64
2023-01-18T19:37:06.586Z,1.62
2023-01-18T19:39:21.512Z,1.61
2023-01-18T19:41:27.808Z,1.60
2023-01-18T19:43:32.760Z,1.64
2023-01-18T19:45:37.649Z,1.64
2023-01-18T19:47:42.277Z,1.60
2023-01-18T19:49:46.851Z,1.48
2023-01-18T19:51:55.873Z,1.49
2023-01-18T19:54:00.665Z,1.60
2023-01-18T19:56:07.605Z,1.61
2023-01-18T19:58:12.331Z,1.58
2023-01-18T20:00:17.928Z,1.60
2023-01-18T20:02:22.796Z,1.56
2023-01-18T20:04:27.469Z,1.48
2023-01-18T20:06:32.070Z,1.55
2023-01-18T20:08:39.554Z,1.62
2023-01-18T20:10:44.112Z,1.65
2023-01-18T20:12:49.420Z,1.63
2023-01-18T20:14:53.962Z,1.63
2023-01-18T20:16:58.544Z,1.57
2023-01-18T20:19:03.191Z,1.58
2023-01-18T20:21:08.232Z,1.68
2023-01-18T20:23:12.797Z,1.66
2023-01-18T20:25:20.003Z,1.71
2023-01-18T20:27:24.526Z,1.79
2023-01-18T20:29:29.127Z,1.80
2023-01-18T20:31:33.953Z,1.85
2023-01-18T20:33:38.533Z,1.86
2023-01-18T20:35:43.112Z,1.83
2023-01-18T20:37:47.649Z,1.74
2023-01-18T20:39:52.679Z,1.68
2023-01-18T20:41:59.891Z,1.66
2023-01-18T20:44:04.786Z,1.58
2023-01-18T20:46:10.387Z,1.62
2023-01-18T20:48:15.568Z,1.61
2023-01-18T20:50:23.294Z,1.62
2023-01-18T20:52:27.931Z,1.58
2023-01-18T20:54:34.655Z,1.59
2023-01-18T20:56:39.396Z,1.64
2023-01-18T20:58:46.768Z,1.64
2023-01-18T21:00:54.758Z,1.68
2023-01-18T21:03:02.581Z,1.71
2023-01-18T21:05:08.479Z,1.74
2023-01-18T21:07:13.000Z,1.66
2023-01-18T21:09:17.580Z,1.64
2023-01-18T21:11:23.053Z,1.61
2023-01-18T21:13:27.735Z,1.55
2023-01-18T21:15:34.940Z,1.57
2023-01-18T21:17:39.785Z,1.55
2023-01-18T21:19:46.096Z,1.47
2023-01-18T21:21:50.757Z,1.47
2023-01-18T21:23:55.305Z,1.41
2023-01-18T21:26:01.709Z,1.36
2023-01-18T21:28:06.385Z,1.37
2023-01-18T21:30:11.785Z,1.35
2023-01-18T21:32:18.911Z,1.33
2023-01-18T21:34:23.601Z,1.30
2023-01-18T21:36:28.143Z,1.27
2023-01-18T21:38:32.719Z,1.18
2023-01-18T21:40:37.286Z,1.18
2023-01-18T21:42:54.291Z,1.16
2023-01-18T21:45:11.270Z,1.17
2023-01-18T21:47:17.880Z,1.13
2023-01-18T21:52:15.004Z,1.15
2023-01-18T21:54:22.139Z,1.17
2023-01-18T21:56:26.740Z,1.19
2023-01-18T21:58:43.758Z,1.13
2023-01-18T22:00:51.321Z,1.12
2023-01-18T22:02:56.009Z,1.07
2023-01-18T22:05:00.796Z,1.06
2023-01-18T22:07:05.370Z,1.00
2023-01-18T22:09:10.727Z,0.96
2023-01-18T22:11:15.325Z,0.93
2023-01-18T22:13:19.846Z,0.83
2023-01-18T22:15:24.397Z,0.81
2023-01-18T22:17:28.981Z,0.82
2023-01-18T22:19:33.571Z,0.84
2023-01-18T22:21:40.880Z,0.86
2023-01-18T22:23:45.403Z,0.87
2023-01-18T22:25:50.153Z,0.90
2023-01-18T22:27:54.694Z,0.91
2023-01-18T22:29:59.221Z,0.89
2023-01-18T22:32:03.844Z,0.78
2023-01-18T22:34:08.764Z,0.77
2023-01-18T22:36:13.380Z,0.81
2023-01-18T22:38:20.506Z,0.87
2023-01-18T22:40:25.033Z,0.84
2023-01-18T22:42:30.185Z,0.83
2023-01-18T22:44:34.830Z,0.78
2023-01-18T22:46:39.427Z,0.78
2023-01-18T22:48:44.243Z,0.74
2023-01-18T22:50:53.988Z,0.74
2023-01-18T22:52:58.621Z,0.77
2023-01-18T22:55:05.823Z,0.78
2023-01-18T22:57:10.322Z,0.75
2023-01-18T22:59:15.410Z,0.80
2023-01-18T23:01:21.417Z,0.82
2023-01-18T23:03:26.167Z,0.86
2023-01-18T23:05:30.731Z,0.92
2023-01-18T23:07:35.740Z,0.93
2023-01-18T23:09:40.234Z,0.96
2023-01-18T23:11:47.811Z,0.96
2023-01-18T23:14:05.669Z,0.99
2023-01-18T23:16:23.308Z,1.00
2023-01-18T23:18:27.851Z,0.99
2023-01-18T23:20:32.435Z,1.02
2023-01-18T23:22:36.942Z,0.93
2023-01-18T23:24:41.849Z,0.83
2023-01-18T23:26:49.225Z,0.78
2023-01-18T23:28:53.911Z,0.80
2023-01-18T23:30:58.481Z,0.72
2023-01-18T23:33:03.077Z,0.64
2023-01-18T23:35:08.253Z,0.65
2023-01-18T23:37:12.848Z,0.56
2023-01-18T23:39:29.850Z,0.52
2023-01-18T23:41:46.842Z,0.51
2023-01-18T23:44:07.480Z,0.45
2023-01-18T23:46:24.804Z,0.47
2023-01-18T23:48:41.778Z,0.50
2023-01-18T23:51:02.173Z,0.43
2023-01-18T23:53:19.220Z,0.36
2023-01-18T23:55:23.818Z,0.39
2023-01-18T23:57:28.319Z,0.39
2023-01-18T23:59:36.928Z,0.43
